Waar ligt Escola Práctica de Artilharia in Portugal?

 

Escola Práctica de Artilharia is gevestigd in de regio Evora in Portugal!

Zoek de plaatsnaam:

Escondido, Escobal, Escoureda, Escoubès, Escobar

Hier ziet u waar Escola Práctica de Artilharia op de kaart ligt.
Voor een indruk van hoe het er nu buiten uitziet staan onderaan wat plaatjes van de omgeving vanuit online web camera's.
U ziet ook de afstanden tot de belangrijkste plaatsen in de regio en tot plaatsen in de rest van Portugal.

Alle plaatsen in de wereld die heten.


Waar ligt Escola Práctica de Artilharia op de kaart?




Webcams vlakbij Escola Práctica de Artilharia

Vasco Carão › South: Garrocheira, Benavente − Airport.


Vasco Carão › South: Garrocheira, Benavente − Airport - Overdag
Recent
Vasco Carão › South: Garrocheira, Benavente − Airport - Recent

Benavente › North-East: AIrport, METAR: BENAV 180005Z 36004KT 17/14 Q1015.


Benavente › North-East: AIrport, METAR: BENAV 180005Z 36004KT 17/14 Q1015 - Overdag
Recent
Benavente › North-East: AIrport, METAR: BENAV 180005Z 36004KT 17/14 Q1015 - Recent

Lisbon › North: Ponte Vasco da Gama.


Lisbon › North: Ponte Vasco da Gama - Overdag
Recent
Lisbon › North: Ponte Vasco da Gama - Recent

Webcams provided by webcams.travel


Afstanden

Waar ligt Escola Práctica de Artilharia ten opzichte van andere plaatsen?

Top 10 plaatsen in Evora en afstand vanaf Escola Práctica de Artilharia.

Plaats#Inwonerskmmijl
Évora1458515031
Montemor-o-Novo2128542113
Vendas Novas31124800
Estremoz493497748
Reguengos de Monsaraz572178553
Redondo658457949
Vila Viçosa754849056
Borba845868955
Adaval9-7446
Agua d' Alte10-7748

Top 10 plaatsen in Portugal en afstand vanaf Escola Práctica de Artilharia.

Plaats # Inwonerskmmijl
Lisbon15177986037
Porto2249630275171
Amadora31788566943
Braga4121393319198
Setúbal51171094226
Coimbra6106580171106
Queluz71033986943
Funchal8980411015631
Vila Nova de Gaia970810274170
Loures10662306440



Reisadvies Portugal

Advies en informatie van het ministerie van Buitenlandse Zaken over (zaken)reizen en veiligheidsrisico’s in Portugal via rijksoverheid.nl.

Met een reisadvies kunnen Nederlandse reizigers zich beter voorbereiden op veiligheidsrisico’s tijdens een buitenlands vakantie of verblijf. Wees geinformerd over de risico's op ontvoeringen, gewapende overvallen, bomaanslagen, natuurrampen of oorlogsgeweld. Buitenlandse Zaken vermeldt in een reisadvies bijvoorbeeld welke gebieden in Portugalo onveilig zijn, roept reizigers op tot waakzaamheid of ontraadt reizen.

Reisadvies Portugal



Reisinformatie Portugal

Informatie over residocumenten, aanvragen van een visa en de kosten hiervan. Contactinformatie van de ambassade in Portugal. Informatie over reisverzekeringen.

Reisinformatie Portugal

Info

Statistieken en Geografie

Portugal bestaat uit 15299 plaatsen in 20 regio's.

De regio Evora bestaat uit 425 plaatsen.

Waar ligt Escola Práctica de Artilharia in Portugal?